sensor_id;sensor_type;location;lat;lon;timestamp;P1;durP1;ratioP1;P2;durP2;ratioP2
75261;SDS011;63859;51.064;4.580;2022-12-18T00:01:51;88.80;;;32.27;;
75261;SDS011;63859;51.064;4.580;2022-12-18T00:04:21;96.13;;;33.33;;
75261;SDS011;63859;51.064;4.580;2022-12-18T00:06:48;86.23;;;32.63;;
75261;SDS011;63859;51.064;4.580;2022-12-18T00:09:14;94.37;;;33.93;;
75261;SDS011;63859;51.064;4.580;2022-12-18T00:11:40;88.13;;;31.03;;
75261;SDS011;63859;51.064;4.580;2022-12-18T00:14:06;83.90;;;31.33;;
75261;SDS011;63859;51.064;4.580;2022-12-18T00:16:32;89.50;;;30.87;;
75261;SDS011;63859;51.064;4.580;2022-12-18T00:19:00;88.13;;;32.60;;
75261;SDS011;63859;51.064;4.580;2022-12-18T00:21:26;85.03;;;32.17;;
75261;SDS011;63859;51.064;4.580;2022-12-18T00:23:53;87.87;;;31.97;;
75261;SDS011;63859;51.064;4.580;2022-12-18T00:26:19;88.80;;;31.27;;
75261;SDS011;63859;51.064;4.580;2022-12-18T00:28:47;93.20;;;32.07;;
75261;SDS011;63859;51.064;4.580;2022-12-18T00:31:15;82.60;;;31.60;;
75261;SDS011;63859;51.064;4.580;2022-12-18T00:33:42;87.20;;;31.50;;
75261;SDS011;63859;51.064;4.580;2022-12-18T00:36:12;89.93;;;33.73;;
75261;SDS011;63859;51.064;4.580;2022-12-18T00:38:38;95.60;;;34.87;;
75261;SDS011;63859;51.064;4.580;2022-12-18T00:41:05;83.47;;;33.17;;
75261;SDS011;63859;51.064;4.580;2022-12-18T00:43:31;84.80;;;31.07;;
75261;SDS011;63859;51.064;4.580;2022-12-18T00:45:57;90.53;;;32.90;;
75261;SDS011;63859;51.064;4.580;2022-12-18T00:48:22;80.47;;;30.03;;
75261;SDS011;63859;51.064;4.580;2022-12-18T00:50:48;79.70;;;31.13;;
75261;SDS011;63859;51.064;4.580;2022-12-18T00:53:14;83.67;;;31.57;;
75261;SDS011;63859;51.064;4.580;2022-12-18T00:55:40;83.23;;;30.40;;
75261;SDS011;63859;51.064;4.580;2022-12-18T00:58:06;75.57;;;29.57;;
75261;SDS011;63859;51.064;4.580;2022-12-18T01:00:33;79.73;;;29.80;;
75261;SDS011;63859;51.064;4.580;2022-12-18T01:02:58;79.10;;;29.13;;
75261;SDS011;63859;51.064;4.580;2022-12-18T01:05:24;80.20;;;30.07;;
75261;SDS011;63859;51.064;4.580;2022-12-18T01:07:50;83.07;;;31.97;;
75261;SDS011;63859;51.064;4.580;2022-12-18T01:10:16;86.70;;;31.13;;
75261;SDS011;63859;51.064;4.580;2022-12-18T01:12:42;86.93;;;30.63;;
75261;SDS011;63859;51.064;4.580;2022-12-18T01:15:07;83.63;;;31.20;;
75261;SDS011;63859;51.064;4.580;2022-12-18T01:17:34;82.30;;;30.43;;
75261;SDS011;63859;51.064;4.580;2022-12-18T01:20:00;79.80;;;29.83;;
75261;SDS011;63859;51.064;4.580;2022-12-18T01:22:25;80.03;;;29.43;;
75261;SDS011;63859;51.064;4.580;2022-12-18T01:24:51;80.83;;;28.53;;
75261;SDS011;63859;51.064;4.580;2022-12-18T01:27:16;82.97;;;29.77;;
75261;SDS011;63859;51.064;4.580;2022-12-18T01:29:42;88.00;;;30.00;;
75261;SDS011;63859;51.064;4.580;2022-12-18T01:32:08;74.60;;;27.73;;
75261;SDS011;63859;51.064;4.580;2022-12-18T01:34:35;74.63;;;28.63;;
75261;SDS011;63859;51.064;4.580;2022-12-18T01:37:02;78.07;;;29.37;;
75261;SDS011;63859;51.064;4.580;2022-12-18T01:39:28;78.07;;;29.40;;
75261;SDS011;63859;51.064;4.580;2022-12-18T01:41:54;85.73;;;30.83;;
75261;SDS011;63859;51.064;4.580;2022-12-18T01:52:42;78.13;;;28.60;;
75261;SDS011;63859;51.064;4.580;2022-12-18T01:55:11;81.73;;;30.97;;
75261;SDS011;63859;51.064;4.580;2022-12-18T01:57:39;77.03;;;29.70;;
75261;SDS011;63859;51.064;4.580;2022-12-18T02:00:07;78.93;;;29.13;;
75261;SDS011;63859;51.064;4.580;2022-12-18T02:02:38;75.03;;;28.70;;
75261;SDS011;63859;51.064;4.580;2022-12-18T02:05:05;84.17;;;27.93;;
75261;SDS011;63859;51.064;4.580;2022-12-18T02:07:35;79.07;;;28.87;;
75261;SDS011;63859;51.064;4.580;2022-12-18T02:10:20;78.20;;;28.87;;
75261;SDS011;63859;51.064;4.580;2022-12-18T02:16:07;80.07;;;28.47;;
75261;SDS011;63859;51.064;4.580;2022-12-18T02:18:45;81.67;;;28.10;;
75261;SDS011;63859;51.064;4.580;2022-12-18T02:21:20;76.67;;;28.00;;
75261;SDS011;63859;51.064;4.580;2022-12-18T02:27:16;79.43;;;27.80;;
75261;SDS011;63859;51.064;4.580;2022-12-18T02:29:48;78.57;;;28.07;;
75261;SDS011;63859;51.064;4.580;2022-12-18T02:32:20;75.67;;;26.70;;
75261;SDS011;63859;51.064;4.580;2022-12-18T02:34:50;68.90;;;26.30;;
75261;SDS011;63859;51.064;4.580;2022-12-18T02:37:17;63.83;;;26.17;;
75261;SDS011;63859;51.064;4.580;2022-12-18T02:39:46;68.97;;;25.60;;
75261;SDS011;63859;51.064;4.580;2022-12-18T02:42:13;60.00;;;25.03;;
75261;SDS011;63859;51.064;4.580;2022-12-18T02:44:42;70.37;;;25.47;;
75261;SDS011;63859;51.064;4.580;2022-12-18T02:47:12;66.17;;;25.97;;
75261;SDS011;63859;51.064;4.580;2022-12-18T02:55:03;70.23;;;25.57;;
75261;SDS011;63859;51.064;4.580;2022-12-18T02:57:42;67.50;;;26.20;;
75261;SDS011;63859;51.064;4.580;2022-12-18T03:00:14;62.37;;;24.50;;
75261;SDS011;63859;51.064;4.580;2022-12-18T03:05:43;58.20;;;23.47;;
75261;SDS011;63859;51.064;4.580;2022-12-18T03:08:24;63.70;;;24.27;;
75261;SDS011;63859;51.064;4.580;2022-12-18T03:10:58;59.93;;;23.93;;
75261;SDS011;63859;51.064;4.580;2022-12-18T03:16:11;58.87;;;23.40;;
75261;SDS011;63859;51.064;4.580;2022-12-18T03:21:08;61.30;;;23.03;;
75261;SDS011;63859;51.064;4.580;2022-12-18T03:23:40;56.40;;;22.77;;
75261;SDS011;63859;51.064;4.580;2022-12-18T03:26:10;63.13;;;22.73;;
75261;SDS011;63859;51.064;4.580;2022-12-18T03:28:40;54.80;;;22.93;;
75261;SDS011;63859;51.064;4.580;2022-12-18T03:31:11;57.87;;;21.27;;
75261;SDS011;63859;51.064;4.580;2022-12-18T03:33:44;59.57;;;23.70;;
75261;SDS011;63859;51.064;4.580;2022-12-18T03:36:22;55.47;;;21.53;;
75261;SDS011;63859;51.064;4.580;2022-12-18T03:38:49;58.90;;;22.57;;
75261;SDS011;63859;51.064;4.580;2022-12-18T03:41:24;56.90;;;20.90;;
75261;SDS011;63859;51.064;4.580;2022-12-18T03:49:27;52.53;;;20.80;;
75261;SDS011;63859;51.064;4.580;2022-12-18T03:52:04;50.97;;;20.07;;
75261;SDS011;63859;51.064;4.580;2022-12-18T03:54:34;53.50;;;21.27;;
75261;SDS011;63859;51.064;4.580;2022-12-18T03:57:03;49.83;;;19.93;;
75261;SDS011;63859;51.064;4.580;2022-12-18T03:59:34;52.10;;;20.07;;
75261;SDS011;63859;51.064;4.580;2022-12-18T04:02:02;50.67;;;20.00;;
75261;SDS011;63859;51.064;4.580;2022-12-18T04:04:30;48.67;;;20.27;;
75261;SDS011;63859;51.064;4.580;2022-12-18T04:06:57;45.27;;;19.03;;
75261;SDS011;63859;51.064;4.580;2022-12-18T04:09:24;49.80;;;19.83;;
75261;SDS011;63859;51.064;4.580;2022-12-18T04:11:51;54.57;;;21.03;;
75261;SDS011;63859;51.064;4.580;2022-12-18T04:14:17;50.50;;;20.80;;
75261;SDS011;63859;51.064;4.580;2022-12-18T04:16:42;48.40;;;21.40;;
75261;SDS011;63859;51.064;4.580;2022-12-18T04:19:08;51.23;;;20.77;;
75261;SDS011;63859;51.064;4.580;2022-12-18T04:21:33;50.37;;;20.80;;
75261;SDS011;63859;51.064;4.580;2022-12-18T04:23:59;52.63;;;20.30;;
75261;SDS011;63859;51.064;4.580;2022-12-18T04:26:24;43.43;;;19.07;;
75261;SDS011;63859;51.064;4.580;2022-12-18T04:28:50;50.40;;;19.50;;
75261;SDS011;63859;51.064;4.580;2022-12-18T04:31:16;49.40;;;19.67;;
75261;SDS011;63859;51.064;4.580;2022-12-18T04:33:41;45.43;;;19.03;;
75261;SDS011;63859;51.064;4.580;2022-12-18T04:36:07;48.83;;;20.10;;
75261;SDS011;63859;51.064;4.580;2022-12-18T04:38:32;50.40;;;18.67;;
75261;SDS011;63859;51.064;4.580;2022-12-18T04:40:58;52.83;;;18.60;;
75261;SDS011;63859;51.064;4.580;2022-12-18T04:43:24;43.37;;;18.53;;
75261;SDS011;63859;51.064;4.580;2022-12-18T04:45:49;52.60;;;20.33;;
75261;SDS011;63859;51.064;4.580;2022-12-18T04:48:15;44.23;;;17.77;;
75261;SDS011;63859;51.064;4.580;2022-12-18T04:50:40;41.53;;;18.47;;
75261;SDS011;63859;51.064;4.580;2022-12-18T04:53:06;44.70;;;19.27;;
75261;SDS011;63859;51.064;4.580;2022-12-18T04:55:32;44.20;;;17.27;;
75261;SDS011;63859;51.064;4.580;2022-12-18T04:57:57;40.70;;;17.10;;
75261;SDS011;63859;51.064;4.580;2022-12-18T05:00:23;46.60;;;19.07;;
75261;SDS011;63859;51.064;4.580;2022-12-18T05:02:48;44.23;;;17.97;;
75261;SDS011;63859;51.064;4.580;2022-12-18T05:05:14;44.23;;;17.80;;
75261;SDS011;63859;51.064;4.580;2022-12-18T05:07:40;49.47;;;18.70;;
75261;SDS011;63859;51.064;4.580;2022-12-18T05:10:06;39.53;;;17.27;;
75261;SDS011;63859;51.064;4.580;2022-12-18T05:12:32;41.80;;;18.17;;
75261;SDS011;63859;51.064;4.580;2022-12-18T05:14:57;43.97;;;18.63;;
75261;SDS011;63859;51.064;4.580;2022-12-18T05:17:23;42.80;;;16.73;;
75261;SDS011;63859;51.064;4.580;2022-12-18T05:19:48;38.60;;;16.77;;
75261;SDS011;63859;51.064;4.580;2022-12-18T05:22:14;43.33;;;17.30;;
75261;SDS011;63859;51.064;4.580;2022-12-18T05:24:40;43.50;;;18.40;;
75261;SDS011;63859;51.064;4.580;2022-12-18T05:27:05;40.57;;;17.87;;
75261;SDS011;63859;51.064;4.580;2022-12-18T05:29:31;40.50;;;17.53;;
75261;SDS011;63859;51.064;4.580;2022-12-18T05:31:56;42.73;;;17.23;;
75261;SDS011;63859;51.064;4.580;2022-12-18T05:34:22;44.70;;;17.47;;
75261;SDS011;63859;51.064;4.580;2022-12-18T05:36:48;41.67;;;17.90;;
75261;SDS011;63859;51.064;4.580;2022-12-18T05:39:13;38.20;;;16.60;;
75261;SDS011;63859;51.064;4.580;2022-12-18T05:41:39;47.73;;;18.07;;
75261;SDS011;63859;51.064;4.580;2022-12-18T05:44:04;40.83;;;18.07;;
75261;SDS011;63859;51.064;4.580;2022-12-18T05:46:30;39.73;;;17.43;;
75261;SDS011;63859;51.064;4.580;2022-12-18T05:48:58;38.20;;;15.90;;
75261;SDS011;63859;51.064;4.580;2022-12-18T05:51:25;41.50;;;17.07;;
75261;SDS011;63859;51.064;4.580;2022-12-18T05:53:50;38.13;;;17.27;;
75261;SDS011;63859;51.064;4.580;2022-12-18T05:56:17;39.33;;;17.13;;
75261;SDS011;63859;51.064;4.580;2022-12-18T05:58:45;39.43;;;15.90;;
75261;SDS011;63859;51.064;4.580;2022-12-18T06:01:13;35.47;;;16.43;;
75261;SDS011;63859;51.064;4.580;2022-12-18T06:03:41;40.20;;;17.10;;
75261;SDS011;63859;51.064;4.580;2022-12-18T06:06:17;40.27;;;16.17;;
75261;SDS011;63859;51.064;4.580;2022-12-18T06:08:45;34.10;;;15.90;;
75261;SDS011;63859;51.064;4.580;2022-12-18T06:11:11;40.40;;;15.67;;
75261;SDS011;63859;51.064;4.580;2022-12-18T06:13:37;38.20;;;16.43;;
75261;SDS011;63859;51.064;4.580;2022-12-18T06:16:06;36.23;;;16.57;;
75261;SDS011;63859;51.064;4.580;2022-12-18T06:18:32;37.27;;;15.17;;
75261;SDS011;63859;51.064;4.580;2022-12-18T06:20:59;37.73;;;16.03;;
75261;SDS011;63859;51.064;4.580;2022-12-18T06:23:24;35.03;;;14.43;;
75261;SDS011;63859;51.064;4.580;2022-12-18T06:25:50;34.90;;;14.83;;
75261;SDS011;63859;51.064;4.580;2022-12-18T06:28:16;35.47;;;14.40;;
75261;SDS011;63859;51.064;4.580;2022-12-18T06:30:45;36.43;;;15.17;;
75261;SDS011;63859;51.064;4.580;2022-12-18T06:33:11;38.10;;;16.13;;
75261;SDS011;63859;51.064;4.580;2022-12-18T06:35:37;36.87;;;15.40;;
75261;SDS011;63859;51.064;4.580;2022-12-18T06:38:03;32.77;;;14.80;;
75261;SDS011;63859;51.064;4.580;2022-12-18T06:40:28;35.47;;;14.60;;
75261;SDS011;63859;51.064;4.580;2022-12-18T06:42:54;38.57;;;15.43;;
75261;SDS011;63859;51.064;4.580;2022-12-18T06:45:20;33.00;;;15.33;;
75261;SDS011;63859;51.064;4.580;2022-12-18T06:47:45;33.20;;;14.77;;
75261;SDS011;63859;51.064;4.580;2022-12-18T06:50:11;32.07;;;15.00;;
75261;SDS011;63859;51.064;4.580;2022-12-18T06:52:38;37.70;;;15.30;;
75261;SDS011;63859;51.064;4.580;2022-12-18T06:55:05;30.50;;;13.43;;
75261;SDS011;63859;51.064;4.580;2022-12-18T06:57:31;35.30;;;14.50;;
75261;SDS011;63859;51.064;4.580;2022-12-18T06:59:57;30.27;;;15.30;;
75261;SDS011;63859;51.064;4.580;2022-12-18T07:02:23;31.53;;;14.23;;
75261;SDS011;63859;51.064;4.580;2022-12-18T07:04:48;36.40;;;14.60;;
75261;SDS011;63859;51.064;4.580;2022-12-18T07:07:14;40.63;;;15.73;;
75261;SDS011;63859;51.064;4.580;2022-12-18T07:09:39;33.37;;;13.70;;
75261;SDS011;63859;51.064;4.580;2022-12-18T07:12:05;35.27;;;15.13;;
75261;SDS011;63859;51.064;4.580;2022-12-18T07:14:31;34.83;;;14.20;;
75261;SDS011;63859;51.064;4.580;2022-12-18T07:16:57;30.53;;;13.97;;
75261;SDS011;63859;51.064;4.580;2022-12-18T07:19:22;33.37;;;14.27;;
75261;SDS011;63859;51.064;4.580;2022-12-18T07:21:49;38.47;;;14.73;;
75261;SDS011;63859;51.064;4.580;2022-12-18T07:24:15;35.97;;;15.20;;
75261;SDS011;63859;51.064;4.580;2022-12-18T07:26:41;31.40;;;13.97;;
75261;SDS011;63859;51.064;4.580;2022-12-18T07:29:06;38.57;;;15.33;;
75261;SDS011;63859;51.064;4.580;2022-12-18T07:31:32;35.40;;;15.03;;
75261;SDS011;63859;51.064;4.580;2022-12-18T07:33:58;32.67;;;13.97;;
75261;SDS011;63859;51.064;4.580;2022-12-18T07:36:23;35.20;;;14.23;;
75261;SDS011;63859;51.064;4.580;2022-12-18T07:38:50;30.97;;;14.37;;
75261;SDS011;63859;51.064;4.580;2022-12-18T07:41:17;27.17;;;13.13;;
75261;SDS011;63859;51.064;4.580;2022-12-18T07:43:44;36.03;;;14.93;;
75261;SDS011;63859;51.064;4.580;2022-12-18T07:46:10;38.03;;;15.63;;
75261;SDS011;63859;51.064;4.580;2022-12-18T07:48:38;29.70;;;13.73;;
75261;SDS011;63859;51.064;4.580;2022-12-18T07:51:05;34.57;;;13.53;;
75261;SDS011;63859;51.064;4.580;2022-12-18T07:53:32;27.30;;;13.20;;
75261;SDS011;63859;51.064;4.580;2022-12-18T07:56:03;35.00;;;14.87;;
75261;SDS011;63859;51.064;4.580;2022-12-18T07:58:30;31.90;;;15.97;;
75261;SDS011;63859;51.064;4.580;2022-12-18T08:01:10;36.80;;;16.30;;
75261;SDS011;63859;51.064;4.580;2022-12-18T08:03:36;36.40;;;15.60;;
75261;SDS011;63859;51.064;4.580;2022-12-18T08:06:06;38.03;;;16.43;;
75261;SDS011;63859;51.064;4.580;2022-12-18T08:08:33;30.10;;;14.20;;
75261;SDS011;63859;51.064;4.580;2022-12-18T08:11:00;35.47;;;15.13;;
75261;SDS011;63859;51.064;4.580;2022-12-18T08:13:26;34.07;;;14.80;;
75261;SDS011;63859;51.064;4.580;2022-12-18T08:15:59;30.70;;;14.40;;
75261;SDS011;63859;51.064;4.580;2022-12-18T08:18:26;33.13;;;14.83;;
75261;SDS011;63859;51.064;4.580;2022-12-18T08:20:52;34.47;;;14.83;;
75261;SDS011;63859;51.064;4.580;2022-12-18T08:23:18;29.97;;;13.67;;
75261;SDS011;63859;51.064;4.580;2022-12-18T08:25:43;29.80;;;14.17;;
75261;SDS011;63859;51.064;4.580;2022-12-18T08:28:09;30.07;;;13.97;;
75261;SDS011;63859;51.064;4.580;2022-12-18T08:30:35;34.07;;;14.70;;
75261;SDS011;63859;51.064;4.580;2022-12-18T08:33:01;26.27;;;13.40;;
75261;SDS011;63859;51.064;4.580;2022-12-18T08:35:28;28.33;;;13.57;;
75261;SDS011;63859;51.064;4.580;2022-12-18T08:37:53;32.47;;;12.63;;
75261;SDS011;63859;51.064;4.580;2022-12-18T08:40:19;31.20;;;13.30;;
75261;SDS011;63859;51.064;4.580;2022-12-18T08:42:44;32.30;;;14.70;;
75261;SDS011;63859;51.064;4.580;2022-12-18T08:45:29;29.83;;;13.03;;
75261;SDS011;63859;51.064;4.580;2022-12-18T08:47:55;27.37;;;13.23;;
75261;SDS011;63859;51.064;4.580;2022-12-18T08:50:20;27.50;;;12.80;;
75261;SDS011;63859;51.064;4.580;2022-12-18T08:52:46;24.07;;;12.37;;
75261;SDS011;63859;51.064;4.580;2022-12-18T08:55:11;28.03;;;12.90;;
75261;SDS011;63859;51.064;4.580;2022-12-18T08:57:37;26.30;;;13.27;;
75261;SDS011;63859;51.064;4.580;2022-12-18T09:00:03;28.33;;;12.77;;
75261;SDS011;63859;51.064;4.580;2022-12-18T09:02:29;29.33;;;13.43;;
75261;SDS011;63859;51.064;4.580;2022-12-18T09:04:55;27.60;;;12.23;;
75261;SDS011;63859;51.064;4.580;2022-12-18T09:07:20;28.00;;;12.83;;
75261;SDS011;63859;51.064;4.580;2022-12-18T09:09:46;114.20;;;54.67;;
75261;SDS011;63859;51.064;4.580;2022-12-18T09:12:12;32.57;;;13.90;;
75261;SDS011;63859;51.064;4.580;2022-12-18T09:14:37;26.30;;;13.00;;
75261;SDS011;63859;51.064;4.580;2022-12-18T09:17:03;30.07;;;14.37;;
75261;SDS011;63859;51.064;4.580;2022-12-18T09:19:28;34.37;;;13.33;;
75261;SDS011;63859;51.064;4.580;2022-12-18T09:21:54;31.57;;;14.17;;
75261;SDS011;63859;51.064;4.580;2022-12-18T09:24:20;28.67;;;14.40;;
75261;SDS011;63859;51.064;4.580;2022-12-18T09:26:45;28.70;;;13.43;;
75261;SDS011;63859;51.064;4.580;2022-12-18T09:29:11;28.13;;;13.30;;
75261;SDS011;63859;51.064;4.580;2022-12-18T09:31:37;25.60;;;11.83;;
75261;SDS011;63859;51.064;4.580;2022-12-18T09:34:03;29.77;;;13.17;;
75261;SDS011;63859;51.064;4.580;2022-12-18T09:36:30;31.87;;;14.10;;
75261;SDS011;63859;51.064;4.580;2022-12-18T09:38:56;28.80;;;13.57;;
75261;SDS011;63859;51.064;4.580;2022-12-18T09:47:03;25.90;;;12.80;;
75261;SDS011;63859;51.064;4.580;2022-12-18T09:49:44;25.53;;;12.93;;
75261;SDS011;63859;51.064;4.580;2022-12-18T09:52:17;27.43;;;13.70;;
75261;SDS011;63859;51.064;4.580;2022-12-18T09:54:59;31.43;;;14.13;;
75261;SDS011;63859;51.064;4.580;2022-12-18T09:57:30;29.73;;;14.10;;
75261;SDS011;63859;51.064;4.580;2022-12-18T10:00:15;28.53;;;13.33;;
75261;SDS011;63859;51.064;4.580;2022-12-18T10:02:45;27.07;;;13.47;;
75261;SDS011;63859;51.064;4.580;2022-12-18T10:05:12;26.40;;;13.80;;
75261;SDS011;63859;51.064;4.580;2022-12-18T10:07:50;29.23;;;12.53;;
75261;SDS011;63859;51.064;4.580;2022-12-18T10:13:22;23.03;;;12.87;;
75261;SDS011;63859;51.064;4.580;2022-12-18T10:16:13;31.17;;;13.07;;
75261;SDS011;63859;51.064;4.580;2022-12-18T10:26:58;32.33;;;14.07;;
75261;SDS011;63859;51.064;4.580;2022-12-18T10:29:35;31.67;;;13.60;;
75261;SDS011;63859;51.064;4.580;2022-12-18T10:32:02;31.53;;;14.53;;
75261;SDS011;63859;51.064;4.580;2022-12-18T10:34:27;32.40;;;14.10;;
75261;SDS011;63859;51.064;4.580;2022-12-18T10:36:53;27.63;;;13.70;;
75261;SDS011;63859;51.064;4.580;2022-12-18T10:39:20;25.77;;;12.87;;
75261;SDS011;63859;51.064;4.580;2022-12-18T10:41:59;34.47;;;14.07;;
75261;SDS011;63859;51.064;4.580;2022-12-18T10:44:36;28.20;;;13.37;;
75261;SDS011;63859;51.064;4.580;2022-12-18T10:47:03;25.30;;;12.53;;
75261;SDS011;63859;51.064;4.580;2022-12-18T10:49:32;30.73;;;14.23;;
75261;SDS011;63859;51.064;4.580;2022-12-18T10:54:53;26.30;;;13.60;;
75261;SDS011;63859;51.064;4.580;2022-12-18T10:59:57;25.63;;;13.93;;
75261;SDS011;63859;51.064;4.580;2022-12-18T11:02:34;29.13;;;14.13;;
75261;SDS011;63859;51.064;4.580;2022-12-18T11:05:02;31.50;;;15.57;;
75261;SDS011;63859;51.064;4.580;2022-12-18T11:07:49;36.67;;;14.90;;
75261;SDS011;63859;51.064;4.580;2022-12-18T11:10:19;30.27;;;14.77;;
75261;SDS011;63859;51.064;4.580;2022-12-18T11:12:47;31.60;;;14.70;;
75261;SDS011;63859;51.064;4.580;2022-12-18T11:15:15;32.57;;;14.77;;
75261;SDS011;63859;51.064;4.580;2022-12-18T11:17:54;30.00;;;15.00;;
75261;SDS011;63859;51.064;4.580;2022-12-18T11:20:29;28.03;;;15.07;;
75261;SDS011;63859;51.064;4.580;2022-12-18T11:22:58;30.60;;;13.60;;
75261;SDS011;63859;51.064;4.580;2022-12-18T11:25:26;29.07;;;14.47;;
75261;SDS011;63859;51.064;4.580;2022-12-18T11:27:53;27.97;;;13.50;;
75261;SDS011;63859;51.064;4.580;2022-12-18T11:33:05;26.03;;;13.73;;
75261;SDS011;63859;51.064;4.580;2022-12-18T11:35:50;40.10;;;15.20;;
75261;SDS011;63859;51.064;4.580;2022-12-18T11:38:38;31.87;;;14.07;;
75261;SDS011;63859;51.064;4.580;2022-12-18T11:44:14;31.57;;;13.53;;
75261;SDS011;63859;51.064;4.580;2022-12-18T11:46:49;28.17;;;13.40;;
75261;SDS011;63859;51.064;4.580;2022-12-18T11:49:22;28.33;;;14.03;;
75261;SDS011;63859;51.064;4.580;2022-12-18T11:52:16;25.23;;;13.57;;
75261;SDS011;63859;51.064;4.580;2022-12-18T11:54:52;32.53;;;14.97;;
75261;SDS011;63859;51.064;4.580;2022-12-18T11:57:42;23.47;;;13.50;;
75261;SDS011;63859;51.064;4.580;2022-12-18T12:00:18;32.23;;;15.20;;
75261;SDS011;63859;51.064;4.580;2022-12-18T12:08:32;30.10;;;14.80;;
75261;SDS011;63859;51.064;4.580;2022-12-18T12:16:56;33.57;;;15.17;;
75261;SDS011;63859;51.064;4.580;2022-12-18T12:30:21;31.40;;;15.23;;
75261;SDS011;63859;51.064;4.580;2022-12-18T12:36:02;37.93;;;17.20;;
75261;SDS011;63859;51.064;4.580;2022-12-18T12:38:46;27.97;;;14.80;;
75261;SDS011;63859;51.064;4.580;2022-12-18T12:41:21;30.83;;;15.90;;
75261;SDS011;63859;51.064;4.580;2022-12-18T12:44:19;28.47;;;15.40;;
75261;SDS011;63859;51.064;4.580;2022-12-18T12:46:50;32.43;;;15.93;;
75261;SDS011;63859;51.064;4.580;2022-12-18T12:49:20;29.93;;;14.77;;
75261;SDS011;63859;51.064;4.580;2022-12-18T12:51:53;31.97;;;15.90;;
75261;SDS011;63859;51.064;4.580;2022-12-18T12:54:24;29.90;;;16.47;;
75261;SDS011;63859;51.064;4.580;2022-12-18T12:57:08;27.87;;;15.03;;
75261;SDS011;63859;51.064;4.580;2022-12-18T13:00:06;30.27;;;15.63;;
75261;SDS011;63859;51.064;4.580;2022-12-18T13:02:48;30.00;;;16.43;;
75261;SDS011;63859;51.064;4.580;2022-12-18T13:05:24;28.80;;;16.13;;
75261;SDS011;63859;51.064;4.580;2022-12-18T13:07:52;32.73;;;16.90;;
75261;SDS011;63859;51.064;4.580;2022-12-18T13:10:32;36.10;;;17.47;;
75261;SDS011;63859;51.064;4.580;2022-12-18T13:13:02;36.40;;;17.73;;
75261;SDS011;63859;51.064;4.580;2022-12-18T13:18:29;30.23;;;17.03;;
75261;SDS011;63859;51.064;4.580;2022-12-18T13:25:51;31.60;;;16.67;;
75261;SDS011;63859;51.064;4.580;2022-12-18T13:30:58;32.50;;;17.47;;
75261;SDS011;63859;51.064;4.580;2022-12-18T13:35:52;37.77;;;16.50;;
75261;SDS011;63859;51.064;4.580;2022-12-18T13:41:01;33.83;;;16.80;;
75261;SDS011;63859;51.064;4.580;2022-12-18T13:43:43;34.43;;;16.97;;
75261;SDS011;63859;51.064;4.580;2022-12-18T13:46:19;32.53;;;16.77;;
75261;SDS011;63859;51.064;4.580;2022-12-18T13:48:55;33.50;;;17.07;;
75261;SDS011;63859;51.064;4.580;2022-12-18T13:51:26;40.97;;;19.00;;
75261;SDS011;63859;51.064;4.580;2022-12-18T13:53:55;41.00;;;18.23;;
75261;SDS011;63859;51.064;4.580;2022-12-18T13:56:26;42.00;;;20.20;;
75261;SDS011;63859;51.064;4.580;2022-12-18T13:59:05;40.30;;;19.73;;
75261;SDS011;63859;51.064;4.580;2022-12-18T14:01:36;31.63;;;17.13;;
75261;SDS011;63859;51.064;4.580;2022-12-18T14:06:47;39.87;;;17.33;;
75261;SDS011;63859;51.064;4.580;2022-12-18T14:09:17;34.97;;;18.37;;
75261;SDS011;63859;51.064;4.580;2022-12-18T14:11:59;37.13;;;18.10;;
75261;SDS011;63859;51.064;4.580;2022-12-18T14:14:48;34.80;;;18.60;;
75261;SDS011;63859;51.064;4.580;2022-12-18T14:17:15;37.10;;;18.50;;
75261;SDS011;63859;51.064;4.580;2022-12-18T14:19:45;34.73;;;18.33;;
75261;SDS011;63859;51.064;4.580;2022-12-18T14:22:23;33.80;;;17.87;;
75261;SDS011;63859;51.064;4.580;2022-12-18T14:28:11;33.13;;;17.27;;
75261;SDS011;63859;51.064;4.580;2022-12-18T14:30:41;34.27;;;17.57;;
75261;SDS011;63859;51.064;4.580;2022-12-18T14:38:16;33.37;;;17.77;;
75261;SDS011;63859;51.064;4.580;2022-12-18T14:40:47;34.33;;;17.63;;
75261;SDS011;63859;51.064;4.580;2022-12-18T14:43:16;40.80;;;20.37;;
75261;SDS011;63859;51.064;4.580;2022-12-18T14:45:45;33.23;;;17.77;;
75261;SDS011;63859;51.064;4.580;2022-12-18T14:50:42;40.77;;;19.03;;
75261;SDS011;63859;51.064;4.580;2022-12-18T14:53:27;42.57;;;19.23;;
75261;SDS011;63859;51.064;4.580;2022-12-18T14:55:57;37.83;;;18.93;;
75261;SDS011;63859;51.064;4.580;2022-12-18T14:58:22;36.43;;;18.30;;
75261;SDS011;63859;51.064;4.580;2022-12-18T15:00:48;39.77;;;18.57;;
75261;SDS011;63859;51.064;4.580;2022-12-18T15:03:18;33.90;;;17.87;;
75261;SDS011;63859;51.064;4.580;2022-12-18T15:05:46;39.83;;;19.07;;
75261;SDS011;63859;51.064;4.580;2022-12-18T15:08:34;38.33;;;19.30;;
75261;SDS011;63859;51.064;4.580;2022-12-18T15:11:01;38.27;;;18.83;;
75261;SDS011;63859;51.064;4.580;2022-12-18T15:13:27;38.47;;;18.77;;
75261;SDS011;63859;51.064;4.580;2022-12-18T15:15:53;37.73;;;18.77;;
75261;SDS011;63859;51.064;4.580;2022-12-18T15:18:23;37.73;;;18.90;;
75261;SDS011;63859;51.064;4.580;2022-12-18T15:20:58;36.43;;;18.07;;
75261;SDS011;63859;51.064;4.580;2022-12-18T15:23:34;35.37;;;18.93;;
75261;SDS011;63859;51.064;4.580;2022-12-18T15:26:12;36.80;;;18.13;;
75261;SDS011;63859;51.064;4.580;2022-12-18T15:28:50;38.33;;;19.17;;
75261;SDS011;63859;51.064;4.580;2022-12-18T15:36:30;39.33;;;18.87;;
75261;SDS011;63859;51.064;4.580;2022-12-18T15:38:56;39.63;;;19.00;;
75261;SDS011;63859;51.064;4.580;2022-12-18T15:41:25;42.30;;;19.77;;
75261;SDS011;63859;51.064;4.580;2022-12-18T15:43:51;38.60;;;19.20;;
75261;SDS011;63859;51.064;4.580;2022-12-18T15:46:24;38.43;;;18.50;;
75261;SDS011;63859;51.064;4.580;2022-12-18T15:48:52;40.67;;;18.87;;
75261;SDS011;63859;51.064;4.580;2022-12-18T15:53:47;38.03;;;19.23;;
75261;SDS011;63859;51.064;4.580;2022-12-18T15:56:15;44.37;;;19.80;;
75261;SDS011;63859;51.064;4.580;2022-12-18T15:59:00;39.73;;;20.07;;
75261;SDS011;63859;51.064;4.580;2022-12-18T16:01:27;42.20;;;20.30;;
75261;SDS011;63859;51.064;4.580;2022-12-18T16:03:54;35.30;;;18.03;;
75261;SDS011;63859;51.064;4.580;2022-12-18T16:06:21;38.07;;;18.20;;
75261;SDS011;63859;51.064;4.580;2022-12-18T16:08:47;36.07;;;18.87;;
75261;SDS011;63859;51.064;4.580;2022-12-18T16:11:20;37.17;;;18.87;;
75261;SDS011;63859;51.064;4.580;2022-12-18T16:14:03;38.73;;;19.20;;
75261;SDS011;63859;51.064;4.580;2022-12-18T16:16:50;46.13;;;20.40;;
75261;SDS011;63859;51.064;4.580;2022-12-18T16:19:17;39.83;;;19.90;;
75261;SDS011;63859;51.064;4.580;2022-12-18T16:21:43;39.20;;;19.33;;
75261;SDS011;63859;51.064;4.580;2022-12-18T16:24:14;38.17;;;20.30;;
75261;SDS011;63859;51.064;4.580;2022-12-18T16:26:41;39.17;;;19.17;;
75261;SDS011;63859;51.064;4.580;2022-12-18T16:29:07;38.20;;;18.57;;
75261;SDS011;63859;51.064;4.580;2022-12-18T16:31:34;38.50;;;18.87;;
75261;SDS011;63859;51.064;4.580;2022-12-18T16:34:09;39.60;;;19.03;;
75261;SDS011;63859;51.064;4.580;2022-12-18T16:36:47;41.07;;;19.33;;
75261;SDS011;63859;51.064;4.580;2022-12-18T16:39:13;41.10;;;19.67;;